sensor_id;sensor_type;location;lat;lon;timestamp;pressure;altitude;pressure_sealevel;temperature;humidity
23016;BME280;11674;52.428;13.584;2022-12-07T00:01:10;101017.91;;;5.15;82.47
23016;BME280;11674;52.428;13.584;2022-12-07T00:06:17;101005.41;;;5.08;82.45
23016;BME280;11674;52.428;13.584;2022-12-07T00:11:24;101014.88;;;5.00;82.22
23016;BME280;11674;52.428;13.584;2022-12-07T00:16:33;101015.03;;;4.94;82.28
23016;BME280;11674;52.428;13.584;2022-12-07T00:21:41;101010.38;;;4.94;82.64
23016;BME280;11674;52.428;13.584;2022-12-07T00:26:48;101005.44;;;4.96;82.88
23016;BME280;11674;52.428;13.584;2022-12-07T00:31:55;101002.75;;;4.85;82.24
23016;BME280;11674;52.428;13.584;2022-12-07T00:37:02;101006.03;;;4.82;82.15
23016;BME280;11674;52.428;13.584;2022-12-07T00:42:09;101000.44;;;4.77;82.30
23016;BME280;11674;52.428;13.584;2022-12-07T00:47:16;100993.50;;;4.74;82.29
23016;BME280;11674;52.428;13.584;2022-12-07T00:52:23;100982.19;;;4.71;82.14
23016;BME280;11674;52.428;13.584;2022-12-07T00:57:30;100987.59;;;4.66;82.24
23016;BME280;11674;52.428;13.584;2022-12-07T01:02:37;100983.19;;;4.65;82.06
23016;BME280;11674;52.428;13.584;2022-12-07T01:07:44;100976.16;;;4.57;82.02
23016;BME280;11674;52.428;13.584;2022-12-07T01:12:51;100981.31;;;4.54;82.02
23016;BME280;11674;52.428;13.584;2022-12-07T01:17:58;100980.28;;;4.43;81.94
23016;BME280;11674;52.428;13.584;2022-12-07T01:23:05;100974.13;;;4.36;81.78
23016;BME280;11674;52.428;13.584;2022-12-07T01:28:12;100970.69;;;4.29;81.78
23016;BME280;11674;52.428;13.584;2022-12-07T01:33:19;100965.66;;;4.26;81.76
23016;BME280;11674;52.428;13.584;2022-12-07T01:38:26;100954.94;;;4.25;82.06
23016;BME280;11674;52.428;13.584;2022-12-07T01:43:33;100954.69;;;4.26;82.11
23016;BME280;11674;52.428;13.584;2022-12-07T01:48:41;100952.28;;;4.30;82.11
23016;BME280;11674;52.428;13.584;2022-12-07T01:53:48;100948.97;;;4.28;81.88
23016;BME280;11674;52.428;13.584;2022-12-07T01:58:56;100939.16;;;4.32;81.95
23016;BME280;11674;52.428;13.584;2022-12-07T02:04:05;100934.16;;;4.29;81.87
23016;BME280;11674;52.428;13.584;2022-12-07T02:09:12;100931.66;;;4.27;81.82
23016;BME280;11674;52.428;13.584;2022-12-07T02:14:19;100925.56;;;4.25;81.93
23016;BME280;11674;52.428;13.584;2022-12-07T02:31:18;100923.63;;;4.09;82.00
23016;BME280;11674;52.428;13.584;2022-12-07T02:36:29;100910.59;;;4.05;81.95
23016;BME280;11674;52.428;13.584;2022-12-07T02:41:43;100907.78;;;4.00;82.04
23016;BME280;11674;52.428;13.584;2022-12-07T02:47:04;100911.00;;;3.97;82.16
23016;BME280;11674;52.428;13.584;2022-12-07T02:52:13;100897.88;;;3.99;82.19
23016;BME280;11674;52.428;13.584;2022-12-07T02:57:34;100899.94;;;3.92;81.90
23016;BME280;11674;52.428;13.584;2022-12-07T03:08:22;100880.25;;;3.95;82.40
23016;BME280;11674;52.428;13.584;2022-12-07T03:18:58;100867.91;;;3.69;81.48
23016;BME280;11674;52.428;13.584;2022-12-07T03:24:10;100871.28;;;3.60;81.86
23016;BME280;11674;52.428;13.584;2022-12-07T03:29:28;100854.97;;;3.53;82.24
23016;BME280;11674;52.428;13.584;2022-12-07T03:34:56;100841.59;;;3.57;82.38
23016;BME280;11674;52.428;13.584;2022-12-07T03:40:25;100839.22;;;3.60;82.03
23016;BME280;11674;52.428;13.584;2022-12-07T03:46:06;100817.31;;;3.60;82.06
23016;BME280;11674;52.428;13.584;2022-12-07T03:56:29;100803.41;;;3.67;82.22
23016;BME280;11674;52.428;13.584;2022-12-07T04:01:36;100799.97;;;3.71;82.26
23016;BME280;11674;52.428;13.584;2022-12-07T04:06:43;100784.94;;;3.74;82.13
23016;BME280;11674;52.428;13.584;2022-12-07T04:11:52;100773.13;;;3.73;82.25
23016;BME280;11674;52.428;13.584;2022-12-07T04:16:59;100778.25;;;3.70;81.93
23016;BME280;11674;52.428;13.584;2022-12-07T04:22:06;100773.34;;;3.72;82.53
23016;BME280;11674;52.428;13.584;2022-12-07T04:27:13;100771.34;;;3.67;82.02
23016;BME280;11674;52.428;13.584;2022-12-07T04:32:20;100771.63;;;3.54;82.03
23016;BME280;11674;52.428;13.584;2022-12-07T04:37:27;100772.88;;;3.47;82.22
23016;BME280;11674;52.428;13.584;2022-12-07T04:42:34;100753.84;;;3.40;82.19
23016;BME280;11674;52.428;13.584;2022-12-07T04:47:41;100746.09;;;3.37;82.30
23016;BME280;11674;52.428;13.584;2022-12-07T04:52:48;100745.00;;;3.38;82.47
23016;BME280;11674;52.428;13.584;2022-12-07T04:57:55;100740.72;;;3.42;82.64
23016;BME280;11674;52.428;13.584;2022-12-07T05:03:02;100736.41;;;3.46;82.56
23016;BME280;11674;52.428;13.584;2022-12-07T05:08:09;100726.88;;;3.49;82.32
23016;BME280;11674;52.428;13.584;2022-12-07T05:13:16;100732.19;;;3.55;82.49
23016;BME280;11674;52.428;13.584;2022-12-07T05:18:24;100718.72;;;3.54;82.48
23016;BME280;11674;52.428;13.584;2022-12-07T05:23:37;100722.38;;;3.59;82.57
23016;BME280;11674;52.428;13.584;2022-12-07T05:28:44;100714.75;;;3.61;82.62
23016;BME280;11674;52.428;13.584;2022-12-07T05:33:53;100719.25;;;3.67;82.74
23016;BME280;11674;52.428;13.584;2022-12-07T05:39:00;100712.44;;;3.70;82.60
23016;BME280;11674;52.428;13.584;2022-12-07T05:44:07;100701.81;;;3.73;82.77
23016;BME280;11674;52.428;13.584;2022-12-07T05:49:14;100698.91;;;3.80;83.01
23016;BME280;11674;52.428;13.584;2022-12-07T05:54:21;100697.06;;;3.85;83.02
23016;BME280;11674;52.428;13.584;2022-12-07T05:59:28;100701.84;;;3.90;82.98
23016;BME280;11674;52.428;13.584;2022-12-07T06:04:46;100686.03;;;3.97;83.12
23016;BME280;11674;52.428;13.584;2022-12-07T06:09:53;100694.91;;;4.04;83.15
23016;BME280;11674;52.428;13.584;2022-12-07T06:15:00;100675.78;;;4.09;82.91
23016;BME280;11674;52.428;13.584;2022-12-07T06:20:07;100664.91;;;4.14;83.10
23016;BME280;11674;52.428;13.584;2022-12-07T06:25:15;100663.31;;;4.18;83.12
23016;BME280;11674;52.428;13.584;2022-12-07T06:30:21;100662.00;;;4.20;82.96
23016;BME280;11674;52.428;13.584;2022-12-07T06:35:28;100657.06;;;4.22;82.87
23016;BME280;11674;52.428;13.584;2022-12-07T06:40:35;100658.09;;;4.16;82.78
23016;BME280;11674;52.428;13.584;2022-12-07T06:45:42;100654.78;;;4.14;83.13
23016;BME280;11674;52.428;13.584;2022-12-07T06:50:49;100654.53;;;4.16;83.25
23016;BME280;11674;52.428;13.584;2022-12-07T06:55:56;100652.91;;;4.20;83.20
23016;BME280;11674;52.428;13.584;2022-12-07T07:01:09;100654.09;;;4.24;83.42
23016;BME280;11674;52.428;13.584;2022-12-07T07:06:16;100657.47;;;4.31;83.50
23016;BME280;11674;52.428;13.584;2022-12-07T07:11:23;100647.66;;;4.35;83.44
23016;BME280;11674;52.428;13.584;2022-12-07T07:16:30;100649.97;;;4.43;83.63
23016;BME280;11674;52.428;13.584;2022-12-07T07:21:37;100652.28;;;4.51;83.58
23016;BME280;11674;52.428;13.584;2022-12-07T07:26:44;100652.91;;;4.58;83.63
23016;BME280;11674;52.428;13.584;2022-12-07T07:31:51;100648.91;;;4.65;83.26
23016;BME280;11674;52.428;13.584;2022-12-07T07:36:58;100648.47;;;4.73;83.47
23016;BME280;11674;52.428;13.584;2022-12-07T07:42:05;100647.75;;;4.83;83.43
23016;BME280;11674;52.428;13.584;2022-12-07T07:47:12;100646.78;;;4.94;83.57
23016;BME280;11674;52.428;13.584;2022-12-07T07:52:19;100648.00;;;5.03;83.63
23016;BME280;11674;52.428;13.584;2022-12-07T07:57:26;100642.03;;;5.11;83.48
23016;BME280;11674;52.428;13.584;2022-12-07T08:02:33;100636.91;;;5.19;83.46
23016;BME280;11674;52.428;13.584;2022-12-07T08:07:40;100644.97;;;5.26;83.28
23016;BME280;11674;52.428;13.584;2022-12-07T08:12:47;100650.25;;;5.32;83.25
23016;BME280;11674;52.428;13.584;2022-12-07T08:17:54;100650.63;;;5.41;83.28
23016;BME280;11674;52.428;13.584;2022-12-07T08:23:01;100658.38;;;5.49;83.26
23016;BME280;11674;52.428;13.584;2022-12-07T08:28:08;100650.78;;;5.56;82.96
23016;BME280;11674;52.428;13.584;2022-12-07T08:33:15;100645.03;;;5.62;82.91
23016;BME280;11674;52.428;13.584;2022-12-07T08:38:22;100656.09;;;5.67;82.74
23016;BME280;11674;52.428;13.584;2022-12-07T08:43:30;100654.47;;;5.71;82.68
23016;BME280;11674;52.428;13.584;2022-12-07T08:48:41;100645.97;;;5.73;82.56
23016;BME280;11674;52.428;13.584;2022-12-07T08:53:52;100661.44;;;5.79;82.61
23016;BME280;11674;52.428;13.584;2022-12-07T08:59:01;100681.78;;;5.78;82.13
23016;BME280;11674;52.428;13.584;2022-12-07T09:04:09;100678.19;;;5.77;82.02
23016;BME280;11674;52.428;13.584;2022-12-07T09:09:16;100666.47;;;5.82;81.71
23016;BME280;11674;52.428;13.584;2022-12-07T09:14:23;100659.53;;;5.79;81.31
23016;BME280;11674;52.428;13.584;2022-12-07T09:19:30;100674.63;;;5.77;81.57
23016;BME280;11674;52.428;13.584;2022-12-07T09:24:37;100689.78;;;5.79;81.57
23016;BME280;11674;52.428;13.584;2022-12-07T09:29:44;100698.88;;;5.80;81.46
23016;BME280;11674;52.428;13.584;2022-12-07T09:34:51;100686.44;;;5.77;81.48
23016;BME280;11674;52.428;13.584;2022-12-07T09:39:58;100691.97;;;5.77;81.41
23016;BME280;11674;52.428;13.584;2022-12-07T09:45:07;100688.66;;;5.75;81.45
23016;BME280;11674;52.428;13.584;2022-12-07T09:50:26;100706.50;;;5.73;81.45
23016;BME280;11674;52.428;13.584;2022-12-07T09:55:33;100699.34;;;5.72;81.47
23016;BME280;11674;52.428;13.584;2022-12-07T10:00:42;100712.81;;;5.68;81.51
23016;BME280;11674;52.428;13.584;2022-12-07T10:05:51;100705.91;;;5.66;81.36
23016;BME280;11674;52.428;13.584;2022-12-07T10:10:58;100712.75;;;5.63;81.61
23016;BME280;11674;52.428;13.584;2022-12-07T10:16:39;100711.66;;;5.64;81.70
23016;BME280;11674;52.428;13.584;2022-12-07T10:22:10;100721.00;;;5.63;81.54
23016;BME280;11674;52.428;13.584;2022-12-07T10:32:31;100714.59;;;5.58;81.62
23016;BME280;11674;52.428;13.584;2022-12-07T10:37:41;100725.66;;;5.63;81.89
23016;BME280;11674;52.428;13.584;2022-12-07T10:53:50;100694.31;;;5.90;81.82
23016;BME280;11674;52.428;13.584;2022-12-07T11:09:55;100698.69;;;5.86;81.42
23016;BME280;11674;52.428;13.584;2022-12-07T11:36:40;100692.47;;;6.01;81.80
23016;BME280;11674;52.428;13.584;2022-12-07T11:41:50;100693.63;;;6.05;82.07
23016;BME280;11674;52.428;13.584;2022-12-07T11:47:06;100676.31;;;6.09;82.18
23016;BME280;11674;52.428;13.584;2022-12-07T11:52:40;100676.06;;;6.11;82.49
23016;BME280;11674;52.428;13.584;2022-12-07T11:57:54;100682.09;;;6.13;82.16
23016;BME280;11674;52.428;13.584;2022-12-07T12:03:12;100677.69;;;6.12;82.25
23016;BME280;11674;52.428;13.584;2022-12-07T12:08:38;100672.19;;;6.12;82.12
23016;BME280;11674;52.428;13.584;2022-12-07T12:14:10;100670.03;;;6.14;82.52
23016;BME280;11674;52.428;13.584;2022-12-07T12:19:33;100661.25;;;6.22;82.28
23016;BME280;11674;52.428;13.584;2022-12-07T12:24:43;100658.53;;;6.27;82.38
23016;BME280;11674;52.428;13.584;2022-12-07T12:29:54;100664.97;;;6.37;82.62
23016;BME280;11674;52.428;13.584;2022-12-07T12:40:38;100666.91;;;6.42;82.30
23016;BME280;11674;52.428;13.584;2022-12-07T12:45:45;100651.50;;;6.41;82.37
23016;BME280;11674;52.428;13.584;2022-12-07T13:23:38;100638.94;;;6.65;82.83
23016;BME280;11674;52.428;13.584;2022-12-07T13:28:47;100637.81;;;6.61;82.80
23016;BME280;11674;52.428;13.584;2022-12-07T13:33:54;100637.28;;;6.64;83.04
23016;BME280;11674;52.428;13.584;2022-12-07T13:39:18;100632.91;;;6.68;82.90
23016;BME280;11674;52.428;13.584;2022-12-07T13:44:27;100627.41;;;6.73;82.99
23016;BME280;11674;52.428;13.584;2022-12-07T13:49:46;100629.63;;;6.76;82.90
23016;BME280;11674;52.428;13.584;2022-12-07T14:00:21;100646.09;;;6.66;82.89
23016;BME280;11674;52.428;13.584;2022-12-07T14:05:33;100647.19;;;6.65;82.90
23016;BME280;11674;52.428;13.584;2022-12-07T14:15:57;100652.16;;;6.63;82.65
23016;BME280;11674;52.428;13.584;2022-12-07T14:21:13;100648.81;;;6.61;82.71
23016;BME280;11674;52.428;13.584;2022-12-07T14:26:20;100636.69;;;6.57;82.63
23016;BME280;11674;52.428;13.584;2022-12-07T14:31:27;100651.84;;;6.54;82.59
23016;BME280;11674;52.428;13.584;2022-12-07T14:36:40;100655.97;;;6.52;82.92
23016;BME280;11674;52.428;13.584;2022-12-07T14:41:47;100640.78;;;6.49;82.75
23016;BME280;11674;52.428;13.584;2022-12-07T14:46:55;100633.59;;;6.43;82.74
23016;BME280;11674;52.428;13.584;2022-12-07T14:52:03;100629.97;;;6.38;82.54
23016;BME280;11674;52.428;13.584;2022-12-07T14:57:12;100622.78;;;6.32;82.56
23016;BME280;11674;52.428;13.584;2022-12-07T15:02:18;100620.22;;;6.20;82.71
23016;BME280;11674;52.428;13.584;2022-12-07T15:07:25;100619.63;;;6.13;82.71
23016;BME280;11674;52.428;13.584;2022-12-07T15:12:32;100617.63;;;6.04;82.66
23016;BME280;11674;52.428;13.584;2022-12-07T15:17:39;100614.00;;;5.98;82.71
23016;BME280;11674;52.428;13.584;2022-12-07T15:22:46;100624.16;;;5.93;82.70
23016;BME280;11674;52.428;13.584;2022-12-07T15:27:53;100619.19;;;5.90;82.66
23016;BME280;11674;52.428;13.584;2022-12-07T15:33:00;100623.25;;;5.82;82.59
23016;BME280;11674;52.428;13.584;2022-12-07T15:38:07;100634.47;;;5.76;82.71
23016;BME280;11674;52.428;13.584;2022-12-07T15:43:14;100625.56;;;5.69;82.68
23016;BME280;11674;52.428;13.584;2022-12-07T15:48:21;100635.19;;;5.66;82.59
23016;BME280;11674;52.428;13.584;2022-12-07T15:53:28;100629.63;;;5.61;82.66
23016;BME280;11674;52.428;13.584;2022-12-07T15:58:35;100633.72;;;5.59;82.67
23016;BME280;11674;52.428;13.584;2022-12-07T16:03:49;100636.19;;;5.55;82.81
23016;BME280;11674;52.428;13.584;2022-12-07T16:08:56;100624.31;;;5.50;82.53
23016;BME280;11674;52.428;13.584;2022-12-07T16:14:03;100628.41;;;5.47;82.85
23016;BME280;11674;52.428;13.584;2022-12-07T16:19:10;100629.22;;;5.48;82.86
23016;BME280;11674;52.428;13.584;2022-12-07T16:24:17;100626.47;;;5.48;82.87
23016;BME280;11674;52.428;13.584;2022-12-07T16:29:24;100634.41;;;5.44;82.73
23016;BME280;11674;52.428;13.584;2022-12-07T16:34:31;100628.63;;;5.41;82.85
23016;BME280;11674;52.428;13.584;2022-12-07T16:39:38;100630.81;;;5.39;82.64
23016;BME280;11674;52.428;13.584;2022-12-07T16:44:45;100642.56;;;5.34;82.59
23016;BME280;11674;52.428;13.584;2022-12-07T16:49:52;100639.00;;;5.34;82.82
23016;BME280;11674;52.428;13.584;2022-12-07T16:54:59;100634.91;;;5.36;82.84
23016;BME280;11674;52.428;13.584;2022-12-07T17:00:07;100635.41;;;5.33;82.91
23016;BME280;11674;52.428;13.584;2022-12-07T17:05:29;100639.50;;;5.31;82.83
23016;BME280;11674;52.428;13.584;2022-12-07T17:10:40;100633.16;;;5.30;83.00
23016;BME280;11674;52.428;13.584;2022-12-07T17:16:03;100631.81;;;5.28;82.64
23016;BME280;11674;52.428;13.584;2022-12-07T17:21:11;100640.81;;;5.23;82.69
23016;BME280;11674;52.428;13.584;2022-12-07T17:26:21;100648.75;;;5.20;82.70
23016;BME280;11674;52.428;13.584;2022-12-07T17:31:28;100650.94;;;5.18;82.75
23016;BME280;11674;52.428;13.584;2022-12-07T17:36:35;100647.03;;;5.14;82.51
23016;BME280;11674;52.428;13.584;2022-12-07T17:41:43;100659.38;;;5.11;82.62
23016;BME280;11674;52.428;13.584;2022-12-07T17:46:52;100662.06;;;5.06;82.72
23016;BME280;11674;52.428;13.584;2022-12-07T17:51:58;100649.91;;;5.02;82.61
23016;BME280;11674;52.428;13.584;2022-12-07T17:57:06;100658.94;;;4.98;82.54
23016;BME280;11674;52.428;13.584;2022-12-07T18:02:13;100661.63;;;4.93;82.42
23016;BME280;11674;52.428;13.584;2022-12-07T18:07:19;100665.16;;;4.88;82.50
23016;BME280;11674;52.428;13.584;2022-12-07T18:12:26;100659.59;;;4.83;82.41
23016;BME280;11674;52.428;13.584;2022-12-07T18:17:33;100657.34;;;4.80;82.56
23016;BME280;11674;52.428;13.584;2022-12-07T18:22:40;100655.94;;;4.78;82.54
23016;BME280;11674;52.428;13.584;2022-12-07T18:27:47;100661.34;;;4.73;82.15
23016;BME280;11674;52.428;13.584;2022-12-07T18:32:54;100670.88;;;4.65;82.32
23016;BME280;11674;52.428;13.584;2022-12-07T18:38:01;100677.38;;;4.59;82.20
23016;BME280;11674;52.428;13.584;2022-12-07T18:43:09;100657.19;;;4.49;81.87
23016;BME280;11674;52.428;13.584;2022-12-07T18:48:17;100669.94;;;4.38;81.96
23016;BME280;11674;52.428;13.584;2022-12-07T18:53:23;100663.25;;;4.29;81.95
23016;BME280;11674;52.428;13.584;2022-12-07T18:58:31;100664.50;;;4.22;82.22
23016;BME280;11674;52.428;13.584;2022-12-07T19:03:38;100671.47;;;4.13;82.39
23016;BME280;11674;52.428;13.584;2022-12-07T19:08:45;100673.91;;;4.09;82.23
23016;BME280;11674;52.428;13.584;2022-12-07T19:13:52;100673.56;;;4.06;82.26
23016;BME280;11674;52.428;13.584;2022-12-07T19:18:59;100674.06;;;4.03;82.22
23016;BME280;11674;52.428;13.584;2022-12-07T19:24:07;100663.84;;;3.98;82.28
23016;BME280;11674;52.428;13.584;2022-12-07T19:29:13;100677.47;;;3.93;82.30
23016;BME280;11674;52.428;13.584;2022-12-07T19:34:20;100678.19;;;3.89;82.22
23016;BME280;11674;52.428;13.584;2022-12-07T19:39:27;100679.19;;;3.83;82.06
23016;BME280;11674;52.428;13.584;2022-12-07T19:44:34;100672.81;;;3.77;82.28
23016;BME280;11674;52.428;13.584;2022-12-07T19:49:43;100681.28;;;3.76;82.17
23016;BME280;11674;52.428;13.584;2022-12-07T19:54:50;100690.59;;;3.75;82.25
23016;BME280;11674;52.428;13.584;2022-12-07T19:59:57;100681.78;;;3.73;82.32
23016;BME280;11674;52.428;13.584;2022-12-07T20:05:04;100679.53;;;3.70;82.18
23016;BME280;11674;52.428;13.584;2022-12-07T20:10:12;100678.97;;;3.68;82.37
23016;BME280;11674;52.428;13.584;2022-12-07T20:15:18;100678.97;;;3.68;82.22
23016;BME280;11674;52.428;13.584;2022-12-07T20:20:25;100677.28;;;3.67;82.23
23016;BME280;11674;52.428;13.584;2022-12-07T20:25:35;100667.06;;;3.62;82.30
23016;BME280;11674;52.428;13.584;2022-12-07T20:36:02;100666.41;;;3.55;82.23
23016;BME280;11674;52.428;13.584;2022-12-07T20:41:11;100673.44;;;3.51;82.24
23016;BME280;11674;52.428;13.584;2022-12-07T20:46:18;100673.59;;;3.45;82.04
23016;BME280;11674;52.428;13.584;2022-12-07T20:51:27;100675.44;;;3.39;82.14
23016;BME280;11674;52.428;13.584;2022-12-07T20:56:35;100678.66;;;3.36;82.05
23016;BME280;11674;52.428;13.584;2022-12-07T21:01:42;100690.13;;;3.33;82.03
23016;BME280;11674;52.428;13.584;2022-12-07T21:06:49;100687.00;;;3.30;81.96
23016;BME280;11674;52.428;13.584;2022-12-07T21:11:57;100688.59;;;3.26;82.06
23016;BME280;11674;52.428;13.584;2022-12-07T21:17:03;100694.56;;;3.23;81.93
23016;BME280;11674;52.428;13.584;2022-12-07T21:22:11;100704.59;;;3.17;81.93
23016;BME280;11674;52.428;13.584;2022-12-07T21:27:17;100704.00;;;3.15;82.04
23016;BME280;11674;52.428;13.584;2022-12-07T21:32:24;100703.88;;;3.10;81.99
23016;BME280;11674;52.428;13.584;2022-12-07T21:37:31;100704.41;;;3.07;82.05
23016;BME280;11674;52.428;13.584;2022-12-07T21:42:38;100695.00;;;3.03;81.91
23016;BME280;11674;52.428;13.584;2022-12-07T21:47:45;100697.38;;;3.00;81.84
23016;BME280;11674;52.428;13.584;2022-12-07T21:52:52;100692.16;;;2.98;82.02
23016;BME280;11674;52.428;13.584;2022-12-07T21:57:59;100692.72;;;3.00;82.13
23016;BME280;11674;52.428;13.584;2022-12-07T22:03:11;100693.56;;;3.01;82.12
23016;BME280;11674;52.428;13.584;2022-12-07T22:08:17;100703.69;;;3.00;82.18
23016;BME280;11674;52.428;13.584;2022-12-07T22:13:25;100685.59;;;2.99;82.02
23016;BME280;11674;52.428;13.584;2022-12-07T22:18:31;100696.88;;;3.03;82.19
23016;BME280;11674;52.428;13.584;2022-12-07T22:23:39;100689.50;;;3.03;81.95
23016;BME280;11674;52.428;13.584;2022-12-07T22:28:46;100699.91;;;3.01;81.93
23016;BME280;11674;52.428;13.584;2022-12-07T22:33:53;100699.91;;;3.01;82.05
23016;BME280;11674;52.428;13.584;2022-12-07T22:39:00;100700.47;;;3.03;82.03
23016;BME280;11674;52.428;13.584;2022-12-07T22:44:07;100697.50;;;3.05;82.08
23016;BME280;11674;52.428;13.584;2022-12-07T22:49:14;100693.44;;;3.07;82.24
23016;BME280;11674;52.428;13.584;2022-12-07T22:54:20;100685.56;;;3.11;81.97
23016;BME280;11674;52.428;13.584;2022-12-07T22:59:28;100681.16;;;3.10;82.09
23016;BME280;11674;52.428;13.584;2022-12-07T23:04:34;100674.38;;;3.12;81.94
23016;BME280;11674;52.428;13.584;2022-12-07T23:09:41;100679.00;;;3.12;81.92
23016;BME280;11674;52.428;13.584;2022-12-07T23:14:48;100689.97;;;3.12;81.96
23016;BME280;11674;52.428;13.584;2022-12-07T23:19:56;100681.97;;;3.10;81.93
23016;BME280;11674;52.428;13.584;2022-12-07T23:25:03;100683.06;;;3.09;81.87
23016;BME280;11674;52.428;13.584;2022-12-07T23:30:10;100683.06;;;3.09;81.98
23016;BME280;11674;52.428;13.584;2022-12-07T23:35:17;100684.13;;;3.08;81.82
23016;BME280;11674;52.428;13.584;2022-12-07T23:40:24;100682.47;;;3.07;81.75
23016;BME280;11674;52.428;13.584;2022-12-07T23:45:31;100665.19;;;3.07;81.74
23016;BME280;11674;52.428;13.584;2022-12-07T23:50:37;100658.06;;;3.06;81.52
23016;BME280;11674;52.428;13.584;2022-12-07T23:55:45;100657.72;;;3.02;81.42
